sensor_id;sensor_type;location;lat;lon;timestamp;pressure;altitude;pressure_sealevel;temperature;humidity
23677;BME280;31493;49.058;12.190;2023-03-14T00:01:58;94454.13;;;8.91;100.00
23677;BME280;31493;49.058;12.190;2023-03-14T00:04:25;94449.50;;;8.95;100.00
23677;BME280;31493;49.058;12.190;2023-03-14T00:06:52;94443.91;;;8.89;100.00
23677;BME280;31493;49.058;12.190;2023-03-14T00:09:19;94444.81;;;8.69;100.00
23677;BME280;31493;49.058;12.190;2023-03-14T00:11:48;94434.66;;;8.68;100.00
23677;BME280;31493;49.058;12.190;2023-03-14T00:14:15;94454.06;;;8.62;100.00
23677;BME280;31493;49.058;12.190;2023-03-14T00:16:45;94461.75;;;8.52;100.00
23677;BME280;31493;49.058;12.190;2023-03-14T00:19:13;94463.56;;;8.61;100.00
23677;BME280;31493;49.058;12.190;2023-03-14T00:21:40;94437.31;;;8.56;100.00
23677;BME280;31493;49.058;12.190;2023-03-14T00:24:07;94440.63;;;8.68;100.00
23677;BME280;31493;49.058;12.190;2023-03-14T00:26:34;94429.63;;;8.66;100.00
23677;BME280;31493;49.058;12.190;2023-03-14T00:29:03;94434.22;;;8.63;100.00
23677;BME280;31493;49.058;12.190;2023-03-14T00:31:30;94410.06;;;8.64;100.00
23677;BME280;31493;49.058;12.190;2023-03-14T00:33:57;94408.97;;;8.56;100.00
23677;BME280;31493;49.058;12.190;2023-03-14T00:36:24;94428.75;;;8.46;100.00
23677;BME280;31493;49.058;12.190;2023-03-14T00:38:52;94475.94;;;8.37;100.00
23677;BME280;31493;49.058;12.190;2023-03-14T00:41:20;94468.81;;;8.50;100.00
23677;BME280;31493;49.058;12.190;2023-03-14T00:43:49;94474.94;;;8.59;100.00
23677;BME280;31493;49.058;12.190;2023-03-14T00:46:17;94479.97;;;8.60;100.00
23677;BME280;31493;49.058;12.190;2023-03-14T00:48:45;94493.50;;;8.53;100.00
23677;BME280;31493;49.058;12.190;2023-03-14T00:51:12;94508.16;;;8.43;100.00
23677;BME280;31493;49.058;12.190;2023-03-14T00:53:41;94506.84;;;8.58;100.00
23677;BME280;31493;49.058;12.190;2023-03-14T00:56:10;94507.09;;;8.55;100.00
23677;BME280;31493;49.058;12.190;2023-03-14T00:58:37;94497.03;;;8.52;100.00
23677;BME280;31493;49.058;12.190;2023-03-14T01:01:05;94503.81;;;8.43;100.00
23677;BME280;31493;49.058;12.190;2023-03-14T01:03:34;94508.53;;;8.38;100.00
23677;BME280;31493;49.058;12.190;2023-03-14T01:06:09;94507.84;;;8.36;100.00
23677;BME280;31493;49.058;12.190;2023-03-14T01:08:37;94508.88;;;8.33;100.00
23677;BME280;31493;49.058;12.190;2023-03-14T01:11:08;94505.81;;;8.40;100.00
23677;BME280;31493;49.058;12.190;2023-03-14T01:13:36;94508.69;;;8.46;100.00
23677;BME280;31493;49.058;12.190;2023-03-14T01:16:04;94494.53;;;8.41;100.00
23677;BME280;31493;49.058;12.190;2023-03-14T01:18:33;94493.00;;;8.59;100.00
23677;BME280;31493;49.058;12.190;2023-03-14T01:21:02;94484.13;;;8.52;100.00
23677;BME280;31493;49.058;12.190;2023-03-14T01:23:30;94488.09;;;8.56;100.00
23677;BME280;31493;49.058;12.190;2023-03-14T01:25:57;94486.81;;;8.41;100.00
23677;BME280;31493;49.058;12.190;2023-03-14T01:28:24;94481.84;;;8.49;100.00
23677;BME280;31493;49.058;12.190;2023-03-14T01:30:51;94460.13;;;8.51;100.00
23677;BME280;31493;49.058;12.190;2023-03-14T01:33:18;94454.00;;;8.43;100.00
23677;BME280;31493;49.058;12.190;2023-03-14T01:35:49;94460.94;;;8.52;100.00
23677;BME280;31493;49.058;12.190;2023-03-14T01:38:16;94460.38;;;8.48;100.00
23677;BME280;31493;49.058;12.190;2023-03-14T01:40:43;94467.41;;;8.46;100.00
23677;BME280;31493;49.058;12.190;2023-03-14T01:43:16;94466.59;;;8.46;100.00
23677;BME280;31493;49.058;12.190;2023-03-14T01:46:12;94477.63;;;8.48;100.00
23677;BME280;31493;49.058;12.190;2023-03-14T01:48:46;94476.63;;;8.39;100.00
23677;BME280;31493;49.058;12.190;2023-03-14T01:51:19;94483.41;;;8.40;100.00
23677;BME280;31493;49.058;12.190;2023-03-14T01:53:47;94479.22;;;8.39;100.00
23677;BME280;31493;49.058;12.190;2023-03-14T01:56:17;94481.09;;;8.37;100.00
23677;BME280;31493;49.058;12.190;2023-03-14T01:58:47;94482.88;;;8.37;100.00
23677;BME280;31493;49.058;12.190;2023-03-14T02:01:18;94480.78;;;8.30;100.00
23677;BME280;31493;49.058;12.190;2023-03-14T02:03:49;94474.53;;;8.33;100.00
23677;BME280;31493;49.058;12.190;2023-03-14T02:06:21;94477.81;;;8.35;100.00
23677;BME280;31493;49.058;12.190;2023-03-14T02:08:50;94469.66;;;8.30;100.00
23677;BME280;31493;49.058;12.190;2023-03-14T02:11:17;94445.63;;;8.29;100.00
23677;BME280;31493;49.058;12.190;2023-03-14T02:13:45;94438.56;;;8.31;100.00
23677;BME280;31493;49.058;12.190;2023-03-14T02:16:12;94441.53;;;8.27;100.00
23677;BME280;31493;49.058;12.190;2023-03-14T02:18:39;94430.94;;;8.20;100.00
23677;BME280;31493;49.058;12.190;2023-03-14T02:21:12;94403.13;;;8.24;100.00
23677;BME280;31493;49.058;12.190;2023-03-14T02:23:53;94387.78;;;8.22;100.00
23677;BME280;31493;49.058;12.190;2023-03-14T02:26:30;94376.63;;;8.12;100.00
23677;BME280;31493;49.058;12.190;2023-03-14T02:29:00;94364.50;;;8.03;100.00
23677;BME280;31493;49.058;12.190;2023-03-14T02:31:27;94372.75;;;7.97;100.00
23677;BME280;31493;49.058;12.190;2023-03-14T02:33:54;94365.31;;;7.94;100.00
23677;BME280;31493;49.058;12.190;2023-03-14T02:36:23;94372.75;;;7.97;100.00
23677;BME280;31493;49.058;12.190;2023-03-14T02:38:53;94384.84;;;7.96;100.00
23677;BME280;31493;49.058;12.190;2023-03-14T02:41:22;94411.69;;;7.94;100.00
23677;BME280;31493;49.058;12.190;2023-03-14T02:43:49;94396.88;;;7.86;100.00
23677;BME280;31493;49.058;12.190;2023-03-14T02:46:18;94398.09;;;7.92;100.00
23677;BME280;31493;49.058;12.190;2023-03-14T02:48:48;94340.72;;;7.80;100.00
23677;BME280;31493;49.058;12.190;2023-03-14T02:51:17;94349.34;;;7.79;100.00
23677;BME280;31493;49.058;12.190;2023-03-14T02:53:44;94338.66;;;7.74;100.00
23677;BME280;31493;49.058;12.190;2023-03-14T02:56:11;94319.28;;;7.79;100.00
23677;BME280;31493;49.058;12.190;2023-03-14T02:58:39;94318.66;;;7.97;100.00
23677;BME280;31493;49.058;12.190;2023-03-14T03:01:06;94325.94;;;7.92;100.00
23677;BME280;31493;49.058;12.190;2023-03-14T03:03:34;94317.53;;;7.80;100.00
23677;BME280;31493;49.058;12.190;2023-03-14T03:06:01;94335.16;;;7.85;100.00
23677;BME280;31493;49.058;12.190;2023-03-14T03:08:28;94331.34;;;7.79;100.00
23677;BME280;31493;49.058;12.190;2023-03-14T03:10:57;94362.06;;;7.71;100.00
23677;BME280;31493;49.058;12.190;2023-03-14T03:13:24;94403.13;;;7.63;100.00
23677;BME280;31493;49.058;12.190;2023-03-14T03:15:52;94412.47;;;7.64;100.00
23677;BME280;31493;49.058;12.190;2023-03-14T03:18:19;94414.97;;;7.54;100.00
23677;BME280;31493;49.058;12.190;2023-03-14T03:20:48;94407.97;;;7.56;100.00
23677;BME280;31493;49.058;12.190;2023-03-14T03:23:15;94423.66;;;7.53;100.00
23677;BME280;31493;49.058;12.190;2023-03-14T03:25:48;94417.56;;;7.54;100.00
23677;BME280;31493;49.058;12.190;2023-03-14T03:28:15;94424.00;;;7.48;100.00
23677;BME280;31493;49.058;12.190;2023-03-14T03:30:42;94435.03;;;7.50;100.00
23677;BME280;31493;49.058;12.190;2023-03-14T03:33:11;94441.22;;;7.48;100.00
23677;BME280;31493;49.058;12.190;2023-03-14T03:35:44;94438.28;;;7.52;100.00
23677;BME280;31493;49.058;12.190;2023-03-14T03:38:13;94426.72;;;7.47;100.00
23677;BME280;31493;49.058;12.190;2023-03-14T03:40:41;94426.34;;;7.51;100.00
23677;BME280;31493;49.058;12.190;2023-03-14T03:43:09;94424.34;;;7.55;100.00
23677;BME280;31493;49.058;12.190;2023-03-14T03:45:36;94420.03;;;7.56;100.00
23677;BME280;31493;49.058;12.190;2023-03-14T03:48:04;94411.41;;;7.45;100.00
23677;BME280;31493;49.058;12.190;2023-03-14T03:50:31;94405.69;;;7.42;100.00
23677;BME280;31493;49.058;12.190;2023-03-14T03:52:58;94409.16;;;7.52;100.00
23677;BME280;31493;49.058;12.190;2023-03-14T03:55:26;94403.69;;;7.45;100.00
23677;BME280;31493;49.058;12.190;2023-03-14T03:57:53;94392.94;;;7.40;100.00
23677;BME280;31493;49.058;12.190;2023-03-14T04:00:21;94370.34;;;7.44;100.00
23677;BME280;31493;49.058;12.190;2023-03-14T04:02:48;94387.66;;;7.42;100.00
23677;BME280;31493;49.058;12.190;2023-03-14T04:05:15;94363.00;;;7.39;100.00
23677;BME280;31493;49.058;12.190;2023-03-14T04:07:42;94369.63;;;7.42;100.00
23677;BME280;31493;49.058;12.190;2023-03-14T04:10:09;94374.25;;;7.38;100.00
23677;BME280;31493;49.058;12.190;2023-03-14T04:12:38;94382.19;;;7.35;100.00
23677;BME280;31493;49.058;12.190;2023-03-14T04:15:06;94372.97;;;7.33;100.00
23677;BME280;31493;49.058;12.190;2023-03-14T04:17:33;94374.59;;;7.34;100.00
23677;BME280;31493;49.058;12.190;2023-03-14T04:20:00;94354.97;;;7.33;100.00
23677;BME280;31493;49.058;12.190;2023-03-14T04:22:28;94361.88;;;7.32;100.00
23677;BME280;31493;49.058;12.190;2023-03-14T04:24:55;94347.59;;;7.28;100.00
23677;BME280;31493;49.058;12.190;2023-03-14T04:27:22;94346.94;;;7.26;100.00
23677;BME280;31493;49.058;12.190;2023-03-14T04:29:51;94339.66;;;7.31;100.00
23677;BME280;31493;49.058;12.190;2023-03-14T04:32:18;94338.38;;;7.25;100.00
23677;BME280;31493;49.058;12.190;2023-03-14T04:34:45;94335.25;;;7.22;100.00
23677;BME280;31493;49.058;12.190;2023-03-14T04:37:12;94329.16;;;7.23;100.00
23677;BME280;31493;49.058;12.190;2023-03-14T04:39:39;94330.09;;;7.22;100.00
23677;BME280;31493;49.058;12.190;2023-03-14T04:42:06;94318.97;;;7.21;100.00
23677;BME280;31493;49.058;12.190;2023-03-14T04:44:33;94312.75;;;7.24;100.00
23677;BME280;31493;49.058;12.190;2023-03-14T04:47:01;94308.81;;;7.20;100.00
23677;BME280;31493;49.058;12.190;2023-03-14T04:49:28;94321.69;;;7.20;100.00
23677;BME280;31493;49.058;12.190;2023-03-14T04:51:55;94310.59;;;7.19;100.00
23677;BME280;31493;49.058;12.190;2023-03-14T04:54:22;94318.03;;;7.22;100.00
23677;BME280;31493;49.058;12.190;2023-03-14T04:56:49;94306.13;;;7.21;100.00
23677;BME280;31493;49.058;12.190;2023-03-14T04:59:16;94309.19;;;7.15;100.00
23677;BME280;31493;49.058;12.190;2023-03-14T05:01:43;94316.19;;;7.24;100.00
23677;BME280;31493;49.058;12.190;2023-03-14T05:04:12;94316.41;;;7.21;100.00
23677;BME280;31493;49.058;12.190;2023-03-14T05:06:39;94326.97;;;7.18;100.00
23677;BME280;31493;49.058;12.190;2023-03-14T05:09:08;94325.22;;;7.19;100.00
23677;BME280;31493;49.058;12.190;2023-03-14T05:11:35;94312.34;;;7.19;100.00
23677;BME280;31493;49.058;12.190;2023-03-14T05:14:02;94326.56;;;7.23;100.00
23677;BME280;31493;49.058;12.190;2023-03-14T05:16:29;94324.25;;;7.20;100.00
23677;BME280;31493;49.058;12.190;2023-03-14T05:18:56;94330.34;;;7.19;100.00
23677;BME280;31493;49.058;12.190;2023-03-14T05:21:25;94328.97;;;7.15;100.00
23677;BME280;31493;49.058;12.190;2023-03-14T05:23:52;94307.44;;;7.16;100.00
23677;BME280;31493;49.058;12.190;2023-03-14T05:26:19;94317.03;;;7.14;100.00
23677;BME280;31493;49.058;12.190;2023-03-14T05:28:46;94322.06;;;7.15;100.00
23677;BME280;31493;49.058;12.190;2023-03-14T05:31:13;94314.47;;;7.14;100.00
23677;BME280;31493;49.058;12.190;2023-03-14T05:33:40;94306.44;;;7.07;100.00
23677;BME280;31493;49.058;12.190;2023-03-14T05:36:08;94314.97;;;7.08;100.00
23677;BME280;31493;49.058;12.190;2023-03-14T05:38:36;94319.19;;;7.09;100.00
23677;BME280;31493;49.058;12.190;2023-03-14T05:41:04;94317.19;;;7.12;100.00
23677;BME280;31493;49.058;12.190;2023-03-14T05:43:31;94313.25;;;7.18;100.00
23677;BME280;31493;49.058;12.190;2023-03-14T05:45:58;94288.16;;;7.10;100.00
23677;BME280;31493;49.058;12.190;2023-03-14T05:48:25;94281.25;;;7.11;100.00
23677;BME280;31493;49.058;12.190;2023-03-14T05:50:54;94287.13;;;7.13;100.00
23677;BME280;31493;49.058;12.190;2023-03-14T05:53:22;94292.63;;;7.08;100.00
23677;BME280;31493;49.058;12.190;2023-03-14T05:55:52;94290.75;;;7.10;100.00
23677;BME280;31493;49.058;12.190;2023-03-14T05:58:19;94291.03;;;7.17;100.00
23677;BME280;31493;49.058;12.190;2023-03-14T06:00:47;94283.03;;;7.10;100.00
23677;BME280;31493;49.058;12.190;2023-03-14T06:03:14;94292.63;;;7.08;100.00
23677;BME280;31493;49.058;12.190;2023-03-14T06:05:41;94295.44;;;7.05;100.00
23677;BME280;31493;49.058;12.190;2023-03-14T06:08:08;94303.59;;;7.10;100.00
23677;BME280;31493;49.058;12.190;2023-03-14T06:10:36;94295.75;;;7.12;100.00
23677;BME280;31493;49.058;12.190;2023-03-14T06:13:04;94291.84;;;7.17;100.00
23677;BME280;31493;49.058;12.190;2023-03-14T06:15:31;94291.56;;;7.11;100.00
23677;BME280;31493;49.058;12.190;2023-03-14T06:17:59;94286.81;;;7.06;100.00
23677;BME280;31493;49.058;12.190;2023-03-14T06:20:26;94284.34;;;7.05;100.00
23677;BME280;31493;49.058;12.190;2023-03-14T06:22:53;94302.13;;;7.08;100.00
23677;BME280;31493;49.058;12.190;2023-03-14T06:25:20;94296.47;;;7.14;100.00
23677;BME280;31493;49.058;12.190;2023-03-14T06:27:47;94296.69;;;7.11;100.00
23677;BME280;31493;49.058;12.190;2023-03-14T06:30:16;94298.09;;;7.15;100.00
23677;BME280;31493;49.058;12.190;2023-03-14T06:32:43;94301.25;;;7.18;100.00
23677;BME280;31493;49.058;12.190;2023-03-14T06:35:10;94302.88;;;7.19;100.00
23677;BME280;31493;49.058;12.190;2023-03-14T06:37:38;94301.25;;;7.18;100.00
23677;BME280;31493;49.058;12.190;2023-03-14T06:40:06;94286.03;;;7.15;100.00
23677;BME280;31493;49.058;12.190;2023-03-14T06:42:34;94278.91;;;7.28;100.00
23677;BME280;31493;49.058;12.190;2023-03-14T06:45:01;94295.59;;;7.24;100.00
23677;BME280;31493;49.058;12.190;2023-03-14T06:47:30;94291.50;;;7.22;100.00
23677;BME280;31493;49.058;12.190;2023-03-14T06:49:57;94277.81;;;7.21;100.00
23677;BME280;31493;49.058;12.190;2023-03-14T06:52:24;94280.50;;;7.20;100.00
23677;BME280;31493;49.058;12.190;2023-03-14T06:54:51;94275.50;;;7.18;100.00
23677;BME280;31493;49.058;12.190;2023-03-14T06:57:18;94278.06;;;7.18;100.00
23677;BME280;31493;49.058;12.190;2023-03-14T06:59:45;94283.31;;;7.17;100.00
23677;BME280;31493;49.058;12.190;2023-03-14T07:02:12;94284.19;;;7.27;100.00
23677;BME280;31493;49.058;12.190;2023-03-14T07:04:40;94284.34;;;7.25;100.00
23677;BME280;31493;49.058;12.190;2023-03-14T07:07:07;94281.06;;;7.23;100.00
23677;BME280;31493;49.058;12.190;2023-03-14T07:09:35;94288.38;;;7.18;100.00
23677;BME280;31493;49.058;12.190;2023-03-14T07:12:02;94282.94;;;7.21;100.00
23677;BME280;31493;49.058;12.190;2023-03-14T07:14:30;94280.81;;;7.26;100.00
23677;BME280;31493;49.058;12.190;2023-03-14T07:16:57;94272.28;;;7.26;100.00
23677;BME280;31493;49.058;12.190;2023-03-14T07:19:24;94276.72;;;7.24;100.00
23677;BME280;31493;49.058;12.190;2023-03-14T07:21:52;94269.72;;;7.26;100.00
23677;BME280;31493;49.058;12.190;2023-03-14T07:24:19;94275.16;;;7.33;100.00
23677;BME280;31493;49.058;12.190;2023-03-14T07:26:46;94273.25;;;7.35;100.00
23677;BME280;31493;49.058;12.190;2023-03-14T07:29:14;94293.03;;;7.34;100.00
23677;BME280;31493;49.058;12.190;2023-03-14T07:31:41;94282.50;;;7.37;100.00
23677;BME280;31493;49.058;12.190;2023-03-14T07:34:08;94294.16;;;7.41;100.00
23677;BME280;31493;49.058;12.190;2023-03-14T07:36:35;94300.25;;;7.40;100.00
23677;BME280;31493;49.058;12.190;2023-03-14T07:39:03;94294.97;;;7.42;100.00
23677;BME280;31493;49.058;12.190;2023-03-14T07:41:30;94299.88;;;7.45;100.00
23677;BME280;31493;49.058;12.190;2023-03-14T07:43:58;94305.28;;;7.42;100.00
23677;BME280;31493;49.058;12.190;2023-03-14T07:46:25;94306.09;;;7.42;100.00
23677;BME280;31493;49.058;12.190;2023-03-14T07:48:52;94316.81;;;7.47;100.00
23677;BME280;31493;49.058;12.190;2023-03-14T07:51:19;94325.50;;;7.46;100.00
23677;BME280;31493;49.058;12.190;2023-03-14T07:53:46;94335.50;;;7.40;100.00
23677;BME280;31493;49.058;12.190;2023-03-14T07:56:14;94326.81;;;7.41;100.00
23677;BME280;31493;49.058;12.190;2023-03-14T07:58:41;94334.81;;;7.38;100.00
23677;BME280;31493;49.058;12.190;2023-03-14T08:01:08;94326.94;;;7.39;100.00
23677;BME280;31493;49.058;12.190;2023-03-14T08:03:35;94331.28;;;7.39;100.00
23677;BME280;31493;49.058;12.190;2023-03-14T08:06:02;94324.38;;;7.39;100.00
23677;BME280;31493;49.058;12.190;2023-03-14T08:08:29;94333.50;;;7.43;100.00
23677;BME280;31493;49.058;12.190;2023-03-14T08:11:02;94339.63;;;7.52;100.00
23677;BME280;31493;49.058;12.190;2023-03-14T08:13:30;94324.84;;;7.54;100.00
23677;BME280;31493;49.058;12.190;2023-03-14T08:15:58;94331.91;;;7.52;100.00
23677;BME280;31493;49.058;12.190;2023-03-14T08:18:25;94308.03;;;7.50;100.00
23677;BME280;31493;49.058;12.190;2023-03-14T08:20:52;94318.66;;;7.57;100.00
23677;BME280;31493;49.058;12.190;2023-03-14T08:23:19;94326.81;;;7.62;100.00
23677;BME280;31493;49.058;12.190;2023-03-14T08:25:48;94313.41;;;7.68;100.00
23677;BME280;31493;49.058;12.190;2023-03-14T08:28:15;94303.78;;;7.70;100.00
23677;BME280;31493;49.058;12.190;2023-03-14T08:30:43;94313.44;;;7.77;100.00
23677;BME280;31493;49.058;12.190;2023-03-14T08:33:10;94313.56;;;7.76;100.00
23677;BME280;31493;49.058;12.190;2023-03-14T08:35:38;94322.03;;;7.88;100.00
23677;BME280;31493;49.058;12.190;2023-03-14T08:38:05;94298.13;;;7.86;100.00
23677;BME280;31493;49.058;12.190;2023-03-14T08:40:32;94299.00;;;7.96;100.00
23677;BME280;31493;49.058;12.190;2023-03-14T08:42:59;94297.94;;;7.98;100.00
23677;BME280;31493;49.058;12.190;2023-03-14T08:45:26;94296.69;;;8.02;100.00
23677;BME280;31493;49.058;12.190;2023-03-14T08:47:54;94294.69;;;8.06;100.00
23677;BME280;31493;49.058;12.190;2023-03-14T08:50:21;94301.19;;;8.10;100.00
23677;BME280;31493;49.058;12.190;2023-03-14T08:52:48;94286.03;;;8.17;100.00
23677;BME280;31493;49.058;12.190;2023-03-14T08:55:16;94286.44;;;8.22;100.00
23677;BME280;31493;49.058;12.190;2023-03-14T08:57:43;94292.44;;;8.32;100.00
23677;BME280;31493;49.058;12.190;2023-03-14T09:00:11;94279.41;;;8.33;100.00
23677;BME280;31493;49.058;12.190;2023-03-14T09:02:40;94287.44;;;8.40;100.00
23677;BME280;31493;49.058;12.190;2023-03-14T09:05:10;94279.88;;;8.48;100.00
23677;BME280;31493;49.058;12.190;2023-03-14T09:07:38;94280.81;;;8.47;100.00
23677;BME280;31493;49.058;12.190;2023-03-14T09:10:06;94290.72;;;8.61;100.00
23677;BME280;31493;49.058;12.190;2023-03-14T09:12:33;94274.97;;;8.55;100.00
23677;BME280;31493;49.058;12.190;2023-03-14T09:15:00;94276.47;;;8.57;100.00
23677;BME280;31493;49.058;12.190;2023-03-14T09:17:27;94280.66;;;8.58;100.00
23677;BME280;31493;49.058;12.190;2023-03-14T09:19:54;94284.63;;;8.63;100.00
23677;BME280;31493;49.058;12.190;2023-03-14T09:22:23;94278.25;;;8.67;100.00
23677;BME280;31493;49.058;12.190;2023-03-14T09:24:50;94278.91;;;8.78;100.00
23677;BME280;31493;49.058;12.190;2023-03-14T09:27:17;94292.09;;;8.85;100.00
23677;BME280;31493;49.058;12.190;2023-03-14T09:29:44;94277.41;;;8.85;100.00
23677;BME280;31493;49.058;12.190;2023-03-14T09:32:10;94289.47;;;8.95;100.00
23677;BME280;31493;49.058;12.190;2023-03-14T09:34:37;94285.13;;;8.95;100.00
23677;BME280;31493;49.058;12.190;2023-03-14T09:37:04;94283.25;;;8.97;100.00
23677;BME280;31493;49.058;12.190;2023-03-14T09:39:33;94284.72;;;9.00;100.00
23677;BME280;31493;49.058;12.190;2023-03-14T09:42:03;94295.88;;;9.10;100.00
23677;BME280;31493;49.058;12.190;2023-03-14T09:44:32;94298.84;;;9.05;100.00
23677;BME280;31493;49.058;12.190;2023-03-14T09:47:04;94287.81;;;9.23;100.00
23677;BME280;31493;49.058;12.190;2023-03-14T09:49:33;94263.38;;;9.17;100.00
23677;BME280;31493;49.058;12.190;2023-03-14T09:52:04;94283.47;;;9.23;100.00
23677;BME280;31493;49.058;12.190;2023-03-14T09:54:38;94286.31;;;9.20;100.00
23677;BME280;31493;49.058;12.190;2023-03-14T09:57:12;94280.91;;;9.23;100.00
23677;BME280;31493;49.058;12.190;2023-03-14T09:59:42;94281.53;;;9.35;100.00
23677;BME280;31493;49.058;12.190;2023-03-14T10:02:16;94280.84;;;9.42;100.00
23677;BME280;31493;49.058;12.190;2023-03-14T10:04:45;94274.75;;;9.34;100.00
23677;BME280;31493;49.058;12.190;2023-03-14T10:07:15;94280.84;;;9.42;100.00
23677;BME280;31493;49.058;12.190;2023-03-14T10:09:45;94261.69;;;9.35;100.00
23677;BME280;31493;49.058;12.190;2023-03-14T10:12:14;94265.63;;;9.39;100.00
23677;BME280;31493;49.058;12.190;2023-03-14T10:14:47;94263.81;;;9.59;100.00
23677;BME280;31493;49.058;12.190;2023-03-14T10:17:16;94278.00;;;9.83;100.00
23677;BME280;31493;49.058;12.190;2023-03-14T10:19:55;94270.06;;;10.12;100.00
23677;BME280;31493;49.058;12.190;2023-03-14T10:22:24;94267.78;;;9.81;100.00
23677;BME280;31493;49.058;12.190;2023-03-14T10:24:55;94281.72;;;9.98;100.00
23677;BME280;31493;49.058;12.190;2023-03-14T10:27:28;94264.09;;;10.11;100.00
23677;BME280;31493;49.058;12.190;2023-03-14T10:29:57;94264.44;;;10.26;100.00
23677;BME280;31493;49.058;12.190;2023-03-14T10:32:32;94261.78;;;10.89;100.00
23677;BME280;31493;49.058;12.190;2023-03-14T10:35:17;94249.66;;;11.16;100.00
23677;BME280;31493;49.058;12.190;2023-03-14T10:37:53;94238.16;;;11.36;99.28
23677;BME280;31493;49.058;12.190;2023-03-14T10:40:26;94241.53;;;11.63;98.20
23677;BME280;31493;49.058;12.190;2023-03-14T10:42:55;94242.38;;;11.37;95.38
23677;BME280;31493;49.058;12.190;2023-03-14T10:45:34;94237.50;;;11.34;95.61
23677;BME280;31493;49.058;12.190;2023-03-14T10:48:22;94225.97;;;11.02;96.26
23677;BME280;31493;49.058;12.190;2023-03-14T10:50:57;94233.13;;;11.09;98.72
23677;BME280;31493;49.058;12.190;2023-03-14T10:53:25;94232.94;;;10.84;96.45
23677;BME280;31493;49.058;12.190;2023-03-14T10:55:55;94240.22;;;10.81;96.19
23677;BME280;31493;49.058;12.190;2023-03-14T10:58:24;94227.50;;;10.52;94.36
23677;BME280;31493;49.058;12.190;2023-03-14T11:01:00;94244.41;;;10.28;95.65
23677;BME280;31493;49.058;12.190;2023-03-14T11:03:31;94238.09;;;10.13;95.31
23677;BME280;31493;49.058;12.190;2023-03-14T11:06:06;94237.91;;;10.24;96.41
23677;BME280;31493;49.058;12.190;2023-03-14T11:08:42;94248.34;;;10.05;96.37
23677;BME280;31493;49.058;12.190;2023-03-14T11:11:16;94246.34;;;9.99;96.28
23677;BME280;31493;49.058;12.190;2023-03-14T11:13:52;94246.75;;;9.94;95.99
23677;BME280;31493;49.058;12.190;2023-03-14T11:16:27;94255.09;;;9.88;96.00
23677;BME280;31493;49.058;12.190;2023-03-14T11:19:06;94256.75;;;9.89;96.59
23677;BME280;31493;49.058;12.190;2023-03-14T11:21:44;94265.19;;;9.81;95.92
23677;BME280;31493;49.058;12.190;2023-03-14T11:24:30;94272.13;;;9.81;96.83
23677;BME280;31493;49.058;12.190;2023-03-14T11:27:09;94271.31;;;9.80;97.81
23677;BME280;31493;49.058;12.190;2023-03-14T11:29:40;94260.88;;;9.72;97.17
23677;BME280;31493;49.058;12.190;2023-03-14T11:32:12;94274.06;;;9.69;98.15
23677;BME280;31493;49.058;12.190;2023-03-14T11:34:45;94263.38;;;9.64;97.28
23677;BME280;31493;49.058;12.190;2023-03-14T11:37:17;94261.84;;;9.71;96.37
23677;BME280;31493;49.058;12.190;2023-03-14T11:39:56;94255.56;;;9.74;97.99
23677;BME280;31493;49.058;12.190;2023-03-14T11:42:28;94249.91;;;9.88;98.54
23677;BME280;31493;49.058;12.190;2023-03-14T11:44:57;94241.50;;;9.86;96.96
23677;BME280;31493;49.058;12.190;2023-03-14T11:47:30;94238.50;;;9.90;99.12
23677;BME280;31493;49.058;12.190;2023-03-14T11:50:02;94235.47;;;9.95;98.89
23677;BME280;31493;49.058;12.190;2023-03-14T11:52:33;94229.72;;;10.01;97.85
23677;BME280;31493;49.058;12.190;2023-03-14T11:55:05;94236.91;;;10.07;98.18
23677;BME280;31493;49.058;12.190;2023-03-14T11:57:35;94224.91;;;10.06;96.78
23677;BME280;31493;49.058;12.190;2023-03-14T12:00:05;94222.22;;;10.08;96.42
23677;BME280;31493;49.058;12.190;2023-03-14T12:02:45;94231.16;;;10.13;96.71
23677;BME280;31493;49.058;12.190;2023-03-14T12:05:53;94221.84;;;10.20;95.75
23677;BME280;31493;49.058;12.190;2023-03-14T12:08:38;94221.78;;;10.30;94.46
23677;BME280;31493;49.058;12.190;2023-03-14T12:11:12;94211.22;;;10.59;95.94
23677;BME280;31493;49.058;12.190;2023-03-14T12:13:46;94205.88;;;10.79;95.74
23677;BME280;31493;49.058;12.190;2023-03-14T12:16:36;94204.41;;;10.76;94.56
23677;BME280;31493;49.058;12.190;2023-03-14T12:22:00;94196.88;;;10.65;94.11
23677;BME280;31493;49.058;12.190;2023-03-14T12:24:31;94195.56;;;10.61;94.94
23677;BME280;31493;49.058;12.190;2023-03-14T12:27:00;94194.91;;;10.59;94.82
23677;BME280;31493;49.058;12.190;2023-03-14T12:29:29;94190.38;;;10.61;93.84
23677;BME280;31493;49.058;12.190;2023-03-14T12:32:08;94167.84;;;10.53;92.97
23677;BME280;31493;49.058;12.190;2023-03-14T12:34:39;94170.22;;;10.46;92.63
23677;BME280;31493;49.058;12.190;2023-03-14T12:37:17;94151.16;;;10.47;92.83
23677;BME280;31493;49.058;12.190;2023-03-14T12:39:56;94173.78;;;10.45;91.35
23677;BME280;31493;49.058;12.190;2023-03-14T12:42:38;94175.03;;;10.41;92.57
23677;BME280;31493;49.058;12.190;2023-03-14T12:45:22;94165.47;;;10.42;92.45
23677;BME280;31493;49.058;12.190;2023-03-14T12:48:10;94165.97;;;10.37;92.91
23677;BME280;31493;49.058;12.190;2023-03-14T12:50:43;94176.22;;;10.29;94.84
23677;BME280;31493;49.058;12.190;2023-03-14T12:53:37;94183.34;;;10.17;100.00
23677;BME280;31493;49.058;12.190;2023-03-14T12:56:21;94179.13;;;9.99;100.00
23677;BME280;31493;49.058;12.190;2023-03-14T12:58:58;94184.66;;;9.86;100.00
23677;BME280;31493;49.058;12.190;2023-03-14T13:01:32;94183.56;;;9.88;100.00
23677;BME280;31493;49.058;12.190;2023-03-14T13:04:03;94167.00;;;9.99;100.00
23677;BME280;31493;49.058;12.190;2023-03-14T13:06:49;94160.16;;;10.08;100.00